Time;durP1;ratioP1;P1;durP2;ratioP2;P2;SDS_P1;SDS_P2;PMS_P1;PMS_P2;Temp;Humidity;BMP_temperature;BMP_pressure;BME280_temperature;BME280_humidity;BME280_pressure;Samples;Min_cycle;Max_cycle;Signal;HPM_P1;HPM_P2
2022/04/24 00:00:27;;;;;;;14.25;10.30;;;10.80;92.20;;;;;;5084908;28;20096;-49
2022/04/24 00:02:53;;;;;;;13.60;9.98;;;10.70;92.50;;;;;;5087162;28;20039;-51
2022/04/24 00:05:18;;;;;;;17.65;9.25;;;10.70;92.60;;;;;;5078370;28;20039;-51
2022/04/24 00:07:44;;;;;;;16.58;10.00;;;10.70;92.60;;;;;;5079841;28;20038;-48
2022/04/24 00:10:10;;;;;;;14.52;9.60;;;10.60;92.80;;;;;;5053975;28;20128;-50
2022/04/24 00:12:36;;;;;;;13.18;8.75;;;10.50;93.30;;;;;;5079539;28;20036;-48
2022/04/24 00:15:02;;;;;;;14.27;9.52;;;10.60;93.20;;;;;;5073741;28;20394;-49
2022/04/24 00:17:28;;;;;;;14.23;8.57;;;10.60;93.30;;;;;;5059341;28;20044;-49
2022/04/24 00:19:53;;;;;;;14.55;9.18;;;10.60;93.40;;;;;;5072314;28;20443;-49
2022/04/24 00:22:19;;;;;;;13.35;8.18;;;10.50;93.70;;;;;;5082981;28;20032;-52
2022/04/24 00:24:44;;;;;;;13.93;9.15;;;10.50;93.80;;;;;;5079279;28;20044;-48
2022/04/24 00:27:10;;;;;;;13.23;9.57;;;10.50;93.60;;;;;;5071283;28;20466;-51
2022/04/24 00:29:36;;;;;;;13.32;8.65;;;10.40;93.80;;;;;;5067515;28;20378;-50
2022/04/24 00:32:02;;;;;;;14.57;8.80;;;10.40;94.10;;;;;;5074034;28;20032;-51
2022/04/24 00:34:28;;;;;;;10.52;7.15;;;10.40;94.20;;;;;;5082062;28;20047;-49
2022/04/24 00:36:54;;;;;;;10.13;7.07;;;10.40;94.40;;;;;;5074411;28;20469;-51
2022/04/24 00:39:20;;;;;;;14.05;8.90;;;10.40;94.40;;;;;;5079595;28;20119;-49
2022/04/24 00:41:47;;;;;;;14.80;8.48;;;10.40;94.30;;;;;;5082506;28;20512;-51
2022/04/24 00:44:13;;;;;;;12.27;8.60;;;10.30;94.80;;;;;;5069452;28;20040;-52
2022/04/24 00:46:46;;;;;;;10.43;8.15;;;10.30;94.60;;;;;;5141694;22;20047;-48
2022/04/24 00:49:13;;;;;;;11.80;8.98;;;10.30;94.80;;;;;;5096127;28;20032;-49
2022/04/24 00:51:39;;;;;;;12.73;8.18;;;10.20;95.20;;;;;;5096722;28;20119;-47
2022/04/24 00:54:09;;;;;;;14.40;9.05;;;10.20;95.30;;;;;;5106367;28;20435;-47
2022/04/24 00:56:37;;;;;;;13.90;8.43;;;10.20;95.30;;;;;;5098411;27;20072;-48
2022/04/24 00:59:05;;;;;;;12.75;8.70;;;10.10;95.70;;;;;;5088068;28;20086;-47
2022/04/24 01:01:32;;;;;;;12.43;8.40;;;10.20;95.50;;;;;;5090935;28;20028;-48
2022/04/24 01:04:00;;;;;;;11.57;7.78;;;10.00;95.70;;;;;;5091259;28;20477;-46
2022/04/24 01:06:41;;;;;;;11.60;8.45;;;10.20;95.90;;;;;;5090934;28;20040;-46
2022/04/24 01:09:19;;;;;;;13.25;9.05;;;10.10;95.60;;;;;;5101440;28;20046;-46
2022/04/24 01:11:47;;;;;;;13.05;8.00;;;10.10;95.90;;;;;;5079686;28;20052;-46
2022/04/24 01:14:13;;;;;;;14.27;8.35;;;10.00;96.10;;;;;;5075672;28;20062;-46
2022/04/24 01:16:39;;;;;;;11.95;7.55;;;10.00;96.10;;;;;;5086301;28;20043;-46
2022/04/24 01:19:05;;;;;;;10.65;7.75;;;10.00;96.40;;;;;;5085145;28;20048;-46
2022/04/24 01:21:34;;;;;;;12.75;7.75;;;9.90;96.50;;;;;;5094781;28;20028;-47
2022/04/24 01:24:03;;;;;;;14.25;8.15;;;9.90;96.60;;;;;;5099890;28;20743;-46
2022/04/24 01:26:29;;;;;;;13.65;8.15;;;9.80;96.80;;;;;;5089577;28;20039;-49
2022/04/24 01:28:54;;;;;;;11.57;7.50;;;9.90;97.00;;;;;;5083292;28;20040;-46
2022/04/24 01:31:20;;;;;;;12.07;8.32;;;9.90;97.00;;;;;;5094568;28;20093;-47
2022/04/24 01:33:45;;;;;;;12.88;8.05;;;9.90;96.90;;;;;;5085052;28;20087;-47
2022/04/24 01:36:12;;;;;;;12.95;7.82;;;9.90;97.00;;;;;;5081060;28;20132;-46
2022/04/24 01:38:37;;;;;;;10.68;7.75;;;9.80;97.00;;;;;;5086834;28;20456;-46
2022/04/24 01:41:03;;;;;;;10.80;7.57;;;9.80;97.10;;;;;;5084522;28;20301;-46
2022/04/24 01:43:28;;;;;;;13.05;8.55;;;9.80;97.30;;;;;;5092805;28;20035;-46
2022/04/24 01:45:54;;;;;;;11.40;7.75;;;9.80;97.40;;;;;;5075046;28;20042;-46
2022/04/24 01:48:20;;;;;;;10.50;7.85;;;9.70;97.40;;;;;;5085816;28;20039;-49
2022/04/24 01:50:45;;;;;;;10.38;7.05;;;9.80;97.40;;;;;;5094487;28;20546;-46
2022/04/24 01:53:11;;;;;;;12.60;8.23;;;9.70;97.50;;;;;;5093158;28;20325;-47
2022/04/24 01:55:37;;;;;;;10.93;6.63;;;9.70;97.40;;;;;;5094803;28;20039;-47
2022/04/24 01:58:02;;;;;;;11.30;7.32;;;9.70;97.60;;;;;;5094235;28;20051;-46
2022/04/24 02:00:29;;;;;;;11.55;7.93;;;9.90;97.10;;;;;;5094437;28;20036;-46
2022/04/24 02:02:55;;;;;;;11.18;7.85;;;9.80;97.00;;;;;;5094426;28;20040;-46
2022/04/24 02:05:21;;;;;;;11.43;7.88;;;9.70;97.30;;;;;;5081449;28;20486;-47
2022/04/24 02:07:46;;;;;;;12.30;8.23;;;9.50;97.70;;;;;;5088526;28;20035;-46
2022/04/24 02:10:12;;;;;;;12.43;7.78;;;9.60;97.70;;;;;;5091713;28;20044;-48
2022/04/24 02:12:40;;;;;;;11.50;7.75;;;9.60;97.80;;;;;;5086093;28;20089;-46
2022/04/24 02:15:07;;;;;;;11.43;7.93;;;9.50;98.20;;;;;;5088607;28;20048;-46
2022/04/24 02:17:32;;;;;;;11.25;8.05;;;9.60;97.70;;;;;;5072475;28;20048;-49
2022/04/24 02:19:58;;;;;;;10.43;7.82;;;9.50;97.80;;;;;;5088976;28;20132;-47
2022/04/24 02:22:23;;;;;;;16.45;8.27;;;9.40;98.10;;;;;;5082659;28;20036;-46
2022/04/24 02:24:51;;;;;;;11.15;7.57;;;9.30;98.50;;;;;;5090227;28;20090;-47
2022/04/24 02:27:17;;;;;;;12.52;7.75;;;9.30;98.60;;;;;;5093722;28;20111;-47
2022/04/24 02:29:42;;;;;;;10.35;7.47;;;9.30;98.90;;;;;;5093769;28;20196;-46
2022/04/24 02:32:08;;;;;;;11.60;8.02;;;9.20;98.80;;;;;;5076032;28;20036;-46
2022/04/24 02:34:34;;;;;;;12.77;8.35;;;9.10;98.70;;;;;;5093344;28;20043;-49
2022/04/24 02:36:59;;;;;;;13.77;8.45;;;9.10;99.10;;;;;;5091704;28;20051;-47
2022/04/24 02:39:25;;;;;;;11.90;7.93;;;9.10;99.30;;;;;;5085150;28;20036;-49
2022/04/24 02:41:50;;;;;;;11.15;7.95;;;9.10;99.30;;;;;;5085558;28;20044;-46
2022/04/24 02:44:16;;;;;;;11.90;8.13;;;9.10;99.30;;;;;;5090761;28;20040;-46
2022/04/24 02:46:42;;;;;;;12.07;7.93;;;9.10;99.00;;;;;;5087345;28;20076;-48
2022/04/24 02:49:07;;;;;;;12.07;7.72;;;9.10;99.30;;;;;;5088954;28;20093;-49
2022/04/24 02:51:33;;;;;;;13.43;7.28;;;9.00;99.40;;;;;;5085274;28;20040;-46
2022/04/24 02:53:58;;;;;;;12.80;8.30;;;9.00;99.40;;;;;;5083968;28;20032;-46
2022/04/24 02:56:24;;;;;;;14.65;8.13;;;9.00;99.20;;;;;;5071792;28;20500;-47
2022/04/24 02:58:49;;;;;;;11.15;7.55;;;9.00;99.30;;;;;;5085829;28;20072;-46
2022/04/24 03:01:15;;;;;;;12.23;8.32;;;8.90;99.60;;;;;;5084654;28;20059;-46
2022/04/24 03:03:42;;;;;;;11.13;7.78;;;8.90;99.40;;;;;;5093182;28;20079;-46
2022/04/24 03:06:07;;;;;;;12.15;8.00;;;8.90;99.50;;;;;;5092296;28;20436;-46
2022/04/24 03:08:33;;;;;;;12.60;7.65;;;8.80;99.50;;;;;;5082979;28;20063;-46
2022/04/24 03:10:59;;;;;;;11.30;7.95;;;8.80;99.80;;;;;;5093289;28;20374;-46
2022/04/24 03:13:24;;;;;;;13.20;8.48;;;8.80;99.50;;;;;;5094776;28;20039;-46
2022/04/24 03:15:50;;;;;;;10.43;7.82;;;8.70;99.50;;;;;;5084376;28;20039;-49
2022/04/24 03:18:15;;;;;;;10.30;6.75;;;8.70;99.70;;;;;;5092626;28;20528;-46
2022/04/24 03:20:41;;;;;;;12.27;7.78;;;8.80;99.30;;;;;;5091053;28;20477;-46
2022/04/24 03:23:07;;;;;;;10.57;7.50;;;8.80;99.00;;;;;;5091261;28;20028;-46
2022/04/24 03:25:32;;;;;;;10.65;7.07;;;8.70;99.40;;;;;;5074490;28;20405;-53
2022/04/24 03:27:58;;;;;;;12.45;8.15;;;8.70;99.40;;;;;;5107907;28;20476;-49
2022/04/24 03:30:23;;;;;;;11.68;7.60;;;8.60;99.40;;;;;;5112865;28;20084;-49
2022/04/24 03:32:49;;;;;;;12.63;8.00;;;8.70;99.20;;;;;;5110634;28;20493;-51
2022/04/24 03:35:14;;;;;;;11.25;7.90;;;8.60;99.50;;;;;;5085715;27;20036;-47
2022/04/24 03:37:42;;;;;;;11.10;7.90;;;8.60;99.40;;;;;;5088525;28;20036;-47
2022/04/24 03:40:08;;;;;;;12.32;7.55;;;8.50;99.70;;;;;;5083960;28;20036;-50
2022/04/24 03:42:35;;;;;;;10.55;7.15;;;8.50;99.80;;;;;;5092275;28;20053;-48
2022/04/24 03:45:01;;;;;;;12.15;8.18;;;8.60;99.40;;;;;;5092390;28;20124;-50
2022/04/24 03:47:27;;;;;;;10.73;7.18;;;8.60;99.30;;;;;;5091684;28;20071;-48
2022/04/24 03:49:53;;;;;;;10.45;7.68;;;8.60;99.20;;;;;;5082241;28;20535;-49
2022/04/24 03:52:18;;;;;;;10.95;6.80;;;8.50;99.50;;;;;;5086064;28;20036;-48
2022/04/24 03:54:44;;;;;;;12.55;7.75;;;8.50;99.30;;;;;;5084895;28;20036;-47
2022/04/24 03:57:10;;;;;;;11.23;7.85;;;8.40;99.50;;;;;;5070936;28;20051;-48
2022/04/24 03:59:36;;;;;;;12.48;6.57;;;8.40;99.70;;;;;;5071671;28;20123;-51
2022/04/24 04:02:02;;;;;;;11.20;7.35;;;8.40;99.60;;;;;;5071700;28;20051;-49
2022/04/24 04:04:28;;;;;;;11.35;7.85;;;8.40;99.60;;;;;;5088787;28;20028;-50
2022/04/24 04:06:53;;;;;;;11.23;7.35;;;8.30;99.70;;;;;;5090071;28;20062;-49
2022/04/24 04:09:19;;;;;;;12.02;8.07;;;8.20;99.90;;;;;;5087899;28;20094;-52
2022/04/24 04:11:45;;;;;;;12.02;7.78;;;8.20;99.80;;;;;;5071678;28;20505;-51
2022/04/24 04:14:10;;;;;;;12.23;8.88;;;8.20;99.90;;;;;;5071756;28;20040;-49
2022/04/24 04:16:36;;;;;;;11.75;7.10;;;8.20;99.80;;;;;;5071390;28;20032;-48
2022/04/24 04:19:02;;;;;;;10.45;6.32;;;8.10;99.90;;;;;;5090203;28;20036;-51
2022/04/24 04:21:27;;;;;;;13.75;7.82;;;8.20;99.90;;;;;;5090628;28;20089;-50
2022/04/24 04:23:53;;;;;;;12.68;7.95;;;8.20;99.80;;;;;;5091504;28;20097;-47
2022/04/24 04:26:18;;;;;;;12.93;7.82;;;8.00;99.90;;;;;;5091702;28;20072;-49
2022/04/24 04:28:45;;;;;;;11.50;6.72;;;8.00;99.90;;;;;;5090150;28;20044;-50
2022/04/24 04:31:11;;;;;;;13.00;8.00;;;8.00;99.90;;;;;;5090780;28;20107;-47
2022/04/24 04:33:37;;;;;;;11.45;7.78;;;8.10;99.90;;;;;;5095491;28;20504;-49
2022/04/24 04:36:02;;;;;;;11.77;8.25;;;8.00;99.90;;;;;;5083373;28;20086;-48
2022/04/24 04:38:28;;;;;;;12.63;8.05;;;7.90;99.90;;;;;;5082855;28;20067;-51
2022/04/24 04:40:53;;;;;;;11.35;7.70;;;8.00;99.90;;;;;;5091733;28;20146;-51
2022/04/24 04:43:19;;;;;;;11.95;7.80;;;7.90;99.90;;;;;;5091061;28;20442;-48
2022/04/24 04:45:44;;;;;;;10.82;7.47;;;7.90;99.90;;;;;;5090228;28;20565;-47
2022/04/24 04:48:10;;;;;;;11.75;8.15;;;7.80;99.90;;;;;;5090007;28;20524;-49
2022/04/24 04:50:36;;;;;;;11.32;8.27;;;7.80;99.90;;;;;;5091490;28;20048;-49
2022/04/24 04:53:01;;;;;;;12.65;8.20;;;7.80;99.90;;;;;;5085098;28;20040;-48
2022/04/24 04:55:27;;;;;;;11.20;7.82;;;7.70;99.90;;;;;;5089046;28;20044;-50
2022/04/24 04:57:54;;;;;;;10.38;6.45;;;7.90;99.90;;;;;;5081185;28;20036;-48
2022/04/24 05:00:20;;;;;;;15.20;9.27;;;7.90;99.90;;;;;;5074707;28;20044;-51
2022/04/24 05:02:46;;;;;;;11.57;7.40;;;7.80;99.90;;;;;;5089021;28;20118;-48
2022/04/24 05:05:11;;;;;;;13.13;8.70;;;7.80;99.90;;;;;;5071834;28;20036;-52
2022/04/24 05:07:37;;;;;;;10.52;7.47;;;7.90;99.90;;;;;;5070996;28;20116;-49
2022/04/24 05:10:04;;;;;;;11.80;8.10;;;8.00;99.90;;;;;;5094968;28;20031;-51
2022/04/24 05:12:30;;;;;;;12.75;8.25;;;7.90;99.90;;;;;;5082744;28;20546;-48
2022/04/24 05:15:04;;;;;;;11.43;8.23;;;7.80;99.90;;;;;;5089520;28;20127;-49
2022/04/24 05:17:30;;;;;;;13.57;7.97;;;7.80;99.90;;;;;;5087263;28;20068;-51
2022/04/24 05:19:56;;;;;;;13.07;7.20;;;7.80;99.90;;;;;;5073743;28;20122;-50
2022/04/24 05:22:22;;;;;;;11.93;8.35;;;7.90;99.90;;;;;;5080677;28;20043;-51
2022/04/24 05:24:49;;;;;;;13.38;7.68;;;7.90;99.90;;;;;;5088221;28;20058;-49
2022/04/24 05:27:14;;;;;;;11.18;7.93;;;7.90;99.90;;;;;;5088646;28;20037;-50
2022/04/24 05:29:40;;;;;;;12.18;8.38;;;8.00;99.90;;;;;;5085013;28;20083;-52
2022/04/24 05:32:06;;;;;;;11.57;7.60;;;8.00;99.90;;;;;;5088889;28;20036;-52
2022/04/24 05:34:32;;;;;;;15.10;8.15;;;8.00;99.90;;;;;;5070974;28;20072;-51
2022/04/24 05:36:57;;;;;;;12.32;7.60;;;8.00;99.90;;;;;;5107787;28;20079;-51
2022/04/24 05:39:23;;;;;;;13.38;8.20;;;8.00;99.90;;;;;;5089495;28;20048;-51
2022/04/24 05:41:49;;;;;;;13.63;7.72;;;8.10;99.90;;;;;;5072339;28;20105;-48
2022/04/24 05:44:14;;;;;;;12.45;8.27;;;8.10;99.90;;;;;;5089038;28;20036;-49
2022/04/24 05:46:40;;;;;;;11.27;7.20;;;8.00;99.90;;;;;;5105121;28;20035;-49
2022/04/24 05:49:06;;;;;;;11.65;7.32;;;8.10;99.90;;;;;;5089833;28;20328;-50
2022/04/24 05:51:33;;;;;;;12.95;7.80;;;8.10;99.90;;;;;;5072769;28;20032;-52
2022/04/24 05:53:59;;;;;;;10.75;6.80;;;8.30;99.90;;;;;;5072916;28;20039;-51
2022/04/24 05:56:25;;;;;;;12.57;8.10;;;8.40;99.90;;;;;;5079917;28;20051;-50
2022/04/24 05:58:51;;;;;;;12.90;8.30;;;8.40;99.90;;;;;;5079330;28;20048;-46
2022/04/24 06:01:17;;;;;;;12.57;8.20;;;8.50;99.90;;;;;;5082613;28;20433;-51
2022/04/24 06:03:43;;;;;;;13.32;8.13;;;8.60;99.90;;;;;;5085831;28;20474;-50
2022/04/24 06:06:09;;;;;;;11.25;7.53;;;8.60;99.90;;;;;;5085599;28;20036;-49
2022/04/24 06:08:35;;;;;;;12.20;7.50;;;8.70;99.90;;;;;;5086409;28;20032;-52
2022/04/24 06:11:00;;;;;;;11.85;8.32;;;8.70;99.90;;;;;;5091772;28;20024;-51
2022/04/24 06:13:27;;;;;;;13.40;7.65;;;8.70;99.90;;;;;;5084056;28;20042;-51
2022/04/24 06:15:57;;;;;;;13.25;7.80;;;8.70;99.90;;;;;;5087861;28;20521;-52
2022/04/24 06:18:31;;;;;;;11.30;7.93;;;8.80;99.90;;;;;;5091812;28;20044;-49
2022/04/24 06:20:57;;;;;;;11.80;7.68;;;8.60;99.90;;;;;;5083876;28;20374;-48
2022/04/24 06:23:24;;;;;;;10.90;6.72;;;9.10;99.90;;;;;;5094518;28;20042;-51
2022/04/24 06:25:50;;;;;;;11.10;6.82;;;9.10;99.90;;;;;;5088257;28;20039;-51
2022/04/24 06:28:16;;;;;;;12.38;7.65;;;9.20;99.90;;;;;;5088302;28;20024;-49
2022/04/24 06:30:41;;;;;;;13.10;7.75;;;9.20;99.40;;;;;;5081990;28;20094;-51
2022/04/24 06:33:08;;;;;;;16.42;7.82;;;9.20;99.80;;;;;;5092876;28;20032;-48
2022/04/24 06:35:33;;;;;;;11.75;7.95;;;9.30;99.70;;;;;;5099922;28;20469;-51
2022/04/24 06:37:59;;;;;;;12.48;6.97;;;9.30;99.30;;;;;;5093365;28;20058;-49
2022/04/24 06:40:25;;;;;;;12.55;6.97;;;9.40;99.40;;;;;;5093459;28;20556;-49
2022/04/24 06:42:52;;;;;;;14.90;8.00;;;9.40;99.00;;;;;;5090835;28;20049;-50
2022/04/24 06:45:27;;;;;;;10.60;6.93;;;9.40;99.40;;;;;;5076656;28;20028;-48
2022/04/24 06:47:54;;;;;;;10.60;7.53;;;9.40;99.50;;;;;;5109463;22;20036;-50
2022/04/24 06:50:22;;;;;;;11.43;7.65;;;9.40;99.40;;;;;;5066493;28;20040;-51
2022/04/24 06:53:06;;;;;;;10.52;6.95;;;9.40;99.60;;;;;;5059908;28;20033;-52
2022/04/24 06:55:41;;;;;;;11.85;6.95;;;9.40;99.30;;;;;;5060009;28;20051;-50
2022/04/24 06:58:08;;;;;;;10.68;7.85;;;9.40;99.20;;;;;;5053218;28;20052;-52
2022/04/24 07:00:36;;;;;;;10.98;7.60;;;9.60;98.90;;;;;;5056562;28;20056;-50
2022/04/24 07:03:09;;;;;;;12.00;7.10;;;9.60;99.10;;;;;;5054960;28;20063;-51
2022/04/24 07:05:35;;;;;;;12.80;7.40;;;9.50;99.50;;;;;;5056523;28;20037;-50
2022/04/24 07:08:00;;;;;;;11.27;7.45;;;9.60;98.80;;;;;;5054609;28;20390;-51
2022/04/24 07:10:26;;;;;;;11.52;7.45;;;9.50;99.50;;;;;;5053443;28;20036;-50
2022/04/24 07:12:52;;;;;;;13.77;7.60;;;9.50;99.70;;;;;;5063325;28;20116;-51
2022/04/24 07:15:20;;;;;;;10.30;7.18;;;9.70;99.50;;;;;;5057604;28;20040;-53
2022/04/24 07:17:46;;;;;;;12.43;7.15;;;9.80;99.90;;;;;;5058038;28;20037;-51
2022/04/24 07:20:14;;;;;;;12.82;6.78;;;10.00;99.20;;;;;;5054335;28;20481;-48
2022/04/24 07:22:48;;;;;;;12.38;6.53;;;10.10;98.30;;;;;;5056310;28;20117;-51
2022/04/24 07:25:19;;;;;;;12.00;7.18;;;10.10;97.90;;;;;;5054232;28;20033;-49
2022/04/24 07:27:45;;;;;;;12.00;7.75;;;10.20;98.20;;;;;;5035579;28;20033;-52
2022/04/24 07:30:15;;;;;;;9.77;6.50;;;10.10;98.20;;;;;;5053375;28;20090;-48
2022/04/24 07:32:47;;;;;;;11.45;7.80;;;10.30;97.60;;;;;;5053157;28;20498;-51
2022/04/24 07:35:16;;;;;;;12.15;7.38;;;10.20;98.00;;;;;;5055289;28;20036;-49
2022/04/24 07:37:42;;;;;;;10.90;6.85;;;10.30;98.40;;;;;;5053285;28;20051;-54
2022/04/24 07:40:10;;;;;;;16.73;7.45;;;10.40;98.20;;;;;;5054221;28;20032;-51
2022/04/24 07:42:47;;;;;;;15.45;8.45;;;10.40;98.10;;;;;;5035229;28;20099;-49
2022/04/24 07:45:19;;;;;;;14.43;7.25;;;10.50;97.70;;;;;;5054893;28;20060;-52
2022/04/24 07:47:46;;;;;;;9.68;6.65;;;10.60;97.70;;;;;;5052778;28;20043;-49
2022/04/24 07:50:13;;;;;;;10.07;6.88;;;10.70;97.60;;;;;;5054293;28;20098;-49
2022/04/24 07:52:38;;;;;;;11.00;7.07;;;10.80;97.10;;;;;;5053237;28;20225;-50
2022/04/24 07:55:04;;;;;;;10.00;6.45;;;10.80;96.80;;;;;;5051319;28;20039;-48
2022/04/24 07:57:30;;;;;;;11.35;6.88;;;10.80;96.30;;;;;;5066790;28;20037;-49
2022/04/24 07:59:55;;;;;;;12.05;7.10;;;10.80;95.90;;;;;;5052413;28;20062;-50
2022/04/24 08:02:20;;;;;;;9.85;6.25;;;10.90;95.70;;;;;;5060160;28;20047;-49
2022/04/24 08:04:46;;;;;;;9.70;6.00;;;11.00;96.40;;;;;;5069462;28;20029;-53
2022/04/24 08:07:11;;;;;;;10.90;6.10;;;11.10;96.10;;;;;;5057521;28;20036;-49
2022/04/24 08:09:37;;;;;;;10.65;7.35;;;11.30;95.50;;;;;;5071412;28;20029;-48
2022/04/24 08:12:03;;;;;;;10.48;6.63;;;11.50;95.70;;;;;;5056992;28;20036;-51
2022/04/24 08:14:29;;;;;;;11.77;6.65;;;11.70;94.60;;;;;;5071550;28;20086;-52
2022/04/24 08:16:55;;;;;;;10.63;6.53;;;11.90;93.20;;;;;;5069750;28;20036;-51
2022/04/24 08:19:21;;;;;;;10.07;6.28;;;12.00;93.40;;;;;;5063385;28;20043;-52
2022/04/24 08:21:46;;;;;;;8.15;5.07;;;12.10;93.00;;;;;;5046863;28;20036;-51
2022/04/24 08:24:12;;;;;;;12.02;6.43;;;12.20;92.20;;;;;;5069571;28;20313;-50
2022/04/24 08:26:37;;;;;;;9.95;6.22;;;12.20;92.20;;;;;;5071253;28;20035;-47
2022/04/24 08:29:03;;;;;;;11.45;6.32;;;12.30;92.30;;;;;;5071439;28;20052;-49
2022/04/24 08:31:28;;;;;;;10.25;5.85;;;12.30;92.60;;;;;;5071620;28;20525;-47
2022/04/24 08:33:57;;;;;;;12.60;6.55;;;12.50;91.50;;;;;;5069136;28;20036;-47
2022/04/24 08:36:24;;;;;;;10.73;5.78;;;12.60;91.60;;;;;;5064840;28;20047;-48
2022/04/24 08:38:49;;;;;;;11.95;5.30;;;12.70;90.80;;;;;;5067243;28;20508;-47
2022/04/24 08:41:21;;;;;;;10.68;4.95;;;12.70;90.80;;;;;;5071155;28;20111;-51
2022/04/24 08:43:47;;;;;;;8.57;4.68;;;12.80;90.50;;;;;;5071475;28;20044;-48
2022/04/24 08:46:12;;;;;;;7.43;4.88;;;12.70;90.10;;;;;;5071105;28;20044;-48
2022/04/24 08:48:40;;;;;;;7.68;4.53;;;12.80;89.00;;;;;;5068924;28;20464;-47
2022/04/24 08:51:08;;;;;;;10.23;4.43;;;12.90;87.80;;;;;;5071190;28;20033;-48
2022/04/24 08:53:35;;;;;;;10.63;4.30;;;12.90;89.30;;;;;;5071763;28;20040;-47
2022/04/24 08:56:01;;;;;;;9.38;4.80;;;12.90;88.10;;;;;;5070897;28;20045;-48
2022/04/24 08:58:27;;;;;;;7.55;4.22;;;13.00;88.90;;;;;;5064159;28;20044;-46
2022/04/24 09:00:52;;;;;;;9.65;4.70;;;13.00;87.70;;;;;;5067537;28;20036;-48
2022/04/24 09:03:18;;;;;;;9.00;4.30;;;13.10;86.50;;;;;;5040227;28;20040;-48
2022/04/24 09:05:43;;;;;;;9.70;4.47;;;13.30;84.50;;;;;;5071087;28;20086;-48
2022/04/24 09:08:11;;;;;;;6.68;4.20;;;13.40;83.90;;;;;;5071290;28;20051;-49
2022/04/24 09:10:50;;;;;;;7.07;4.20;;;13.40;86.00;;;;;;5071188;28;20036;-48
2022/04/24 09:13:30;;;;;;;6.45;4.15;;;13.50;83.30;;;;;;5071133;28;20040;-50
2022/04/24 09:16:02;;;;;;;5.53;3.85;;;13.70;82.50;;;;;;5065240;28;20075;-48
2022/04/24 09:18:40;;;;;;;5.93;3.80;;;13.80;81.90;;;;;;5063807;28;20044;-48
2022/04/24 09:21:06;;;;;;;6.13;3.42;;;13.90;81.30;;;;;;5071010;28;20071;-51
2022/04/24 09:23:36;;;;;;;6.75;3.70;;;13.90;80.20;;;;;;5071137;28;20056;-47
2022/04/24 09:26:02;;;;;;;8.40;3.85;;;14.00;79.20;;;;;;5070942;28;20044;-47
2022/04/24 09:28:41;;;;;;;6.53;3.30;;;14.10;78.70;;;;;;5063020;28;20040;-52
2022/04/24 09:31:07;;;;;;;5.97;3.33;;;14.30;75.30;;;;;;5060235;28;20035;-50
2022/04/24 09:33:36;;;;;;;7.38;3.28;;;14.40;75.00;;;;;;5074377;28;20060;-52
2022/04/24 09:36:02;;;;;;;5.20;3.38;;;14.60;71.40;;;;;;5075227;28;20111;-48
2022/04/24 09:38:28;;;;;;;6.45;3.42;;;14.60;71.30;;;;;;5074880;28;20589;-47
2022/04/24 09:40:53;;;;;;;6.63;3.05;;;14.70;73.70;;;;;;5064984;28;20033;-47
2022/04/24 09:43:20;;;;;;;5.55;2.97;;;14.90;70.50;;;;;;5073966;28;20029;-49
2022/04/24 09:45:50;;;;;;;5.70;2.85;;;15.00;69.40;;;;;;5074202;28;20029;-48
2022/04/24 09:48:18;;;;;;;4.20;3.03;;;15.10;65.30;;;;;;5073627;28;20045;-49
2022/04/24 09:50:44;;;;;;;4.43;2.92;;;15.10;66.00;;;;;;5071014;28;20048;-51
2022/04/24 09:53:16;;;;;;;6.28;2.95;;;15.10;66.30;;;;;;5072300;28;20082;-47
2022/04/24 09:55:43;;;;;;;7.85;3.35;;;15.20;65.70;;;;;;5071311;28;20432;-47
2022/04/24 09:58:11;;;;;;;5.97;2.75;;;15.20;65.40;;;;;;5073693;28;20040;-50
2022/04/24 10:00:37;;;;;;;5.53;3.10;;;15.30;64.10;;;;;;5073970;28;20045;-50
2022/04/24 10:03:03;;;;;;;8.95;2.80;;;15.30;64.60;;;;;;5074265;28;20089;-50
2022/04/24 10:05:32;;;;;;;5.20;3.28;;;15.40;64.00;;;;;;5074085;28;20120;-48
2022/04/24 10:07:59;;;;;;;4.93;2.80;;;15.40;64.90;;;;;;5071545;28;20047;-51
2022/04/24 10:10:25;;;;;;;5.10;3.20;;;15.40;64.80;;;;;;5066846;28;20379;-50
2022/04/24 10:12:53;;;;;;;6.75;3.40;;;15.50;63.20;;;;;;5073724;28;20101;-50
2022/04/24 10:15:21;;;;;;;7.50;3.30;;;15.50;63.60;;;;;;5073994;28;20032;-52
2022/04/24 10:17:56;;;;;;;7.32;3.45;;;15.50;63.80;;;;;;5073727;28;20049;-49
2022/04/24 10:20:41;;;;;;;4.25;3.00;;;15.60;64.40;;;;;;5072329;28;20040;-51
2022/04/24 10:23:08;;;;;;;4.35;2.95;;;15.60;61.80;;;;;;5071502;28;20036;-50
2022/04/24 10:25:40;;;;;;;6.15;3.70;;;15.70;61.60;;;;;;5073372;28;20410;-51
2022/04/24 10:28:10;;;;;;;8.68;3.20;;;15.70;61.90;;;;;;5073415;28;20048;-49
2022/04/24 10:30:36;;;;;;;6.38;3.40;;;15.70;60.10;;;;;;5039020;28;20036;-50
2022/04/24 10:33:21;;;;;;;5.85;3.22;;;15.70;60.70;;;;;;5072951;28;20066;-51
2022/04/24 10:35:54;;;;;;;5.50;3.20;;;15.80;62.80;;;;;;5073334;28;20067;-52
2022/04/24 10:38:22;;;;;;;9.25;3.30;;;15.90;62.50;;;;;;5073079;28;20040;-50
2022/04/24 10:41:05;;;;;;;6.40;2.83;;;15.90;61.10;;;;;;5072625;28;20036;-48
2022/04/24 10:43:46;;;;;;;7.38;2.67;;;16.00;60.20;;;;;;5064484;28;20040;-50
2022/04/24 10:46:17;;;;;;;6.03;3.88;;;16.10;61.40;;;;;;5051712;28;20040;-52
2022/04/24 10:48:44;;;;;;;4.72;3.35;;;16.10;59.20;;;;;;5046484;28;20036;-53
2022/04/24 10:51:10;;;;;;;4.82;3.10;;;16.10;59.80;;;;;;5065797;28;20048;-51
2022/04/24 10:53:50;;;;;;;5.97;3.55;;;16.10;59.80;;;;;;5061221;28;20037;-51
2022/04/24 10:56:15;;;;;;;5.55;3.38;;;16.10;59.10;;;;;;5058885;28;20056;-52
2022/04/24 10:58:41;;;;;;;8.68;3.17;;;16.20;58.40;;;;;;5053924;28;20119;-50
2022/04/24 11:01:13;;;;;;;7.85;3.33;;;16.20;59.70;;;;;;5062006;28;20045;-53
2022/04/24 11:03:44;;;;;;;4.22;2.80;;;16.20;59.10;;;;;;5060109;28;20493;-51
2022/04/24 11:06:20;;;;;;;5.20;3.40;;;16.30;60.10;;;;;;5053762;28;20130;-51
2022/04/24 11:08:46;;;;;;;7.55;3.22;;;16.40;59.30;;;;;;5054951;28;20044;-50
2022/04/24 11:11:13;;;;;;;5.70;3.22;;;16.30;57.50;;;;;;5056663;28;20371;-53
2022/04/24 11:13:39;;;;;;;7.00;2.88;;;16.40;56.70;;;;;;5061397;28;20334;-48
2022/04/24 11:16:06;;;;;;;6.18;2.92;;;16.40;56.30;;;;;;5058343;28;20037;-51
2022/04/24 11:18:32;;;;;;;6.05;3.13;;;16.40;54.90;;;;;;5058934;28;20037;-49
2022/04/24 11:21:04;;;;;;;3.60;2.63;;;16.30;54.50;;;;;;5065331;28;20048;-52
2022/04/24 11:23:32;;;;;;;4.22;2.47;;;16.30;52.90;;;;;;5044690;28;20121;-46
2022/04/24 11:25:59;;;;;;;5.05;3.05;;;16.20;52.20;;;;;;5056216;28;20041;-48
2022/04/24 11:28:41;;;;;;;6.60;3.08;;;16.20;53.80;;;;;;5055742;28;20044;-53
2022/04/24 11:31:17;;;;;;;5.03;2.55;;;16.30;55.00;;;;;;5062230;28;20043;-48
2022/04/24 11:33:58;;;;;;;5.07;2.50;;;16.40;54.30;;;;;;5045084;28;20047;-49
2022/04/24 11:36:32;;;;;;;4.10;2.22;;;16.40;52.70;;;;;;5060294;28;20041;-51
2022/04/24 11:38:58;;;;;;;4.65;2.65;;;16.40;52.80;;;;;;5061612;28;20029;-48
2022/04/24 11:41:28;;;;;;;4.40;2.60;;;16.50;53.20;;;;;;5062127;28;20036;-52
2022/04/24 11:44:00;;;;;;;5.82;2.70;;;16.50;54.40;;;;;;5046555;28;20479;-51
2022/04/24 11:51:54;;;;;;;3.40;2.45;;;16.60;52.50;;;;;;5067705;28;20509;-50
2022/04/24 11:54:21;;;;;;;5.70;2.33;;;16.70;51.70;;;;;;5071144;28;20068;-48
2022/04/24 11:56:50;;;;;;;4.38;2.10;;;16.80;50.70;;;;;;5069123;28;20028;-51
2022/04/24 11:59:19;;;;;;;3.50;2.40;;;16.80;50.60;;;;;;5058738;28;20082;-50
2022/04/24 12:01:53;;;;;;;5.05;2.28;;;16.80;50.40;;;;;;5052005;28;20032;-50
2022/04/24 12:04:20;;;;;;;3.78;2.00;;;16.70;49.20;;;;;;5051945;28;20084;-50
2022/04/24 12:06:46;;;;;;;3.47;1.95;;;16.80;48.20;;;;;;5062274;28;20089;-49
2022/04/24 12:09:12;;;;;;;4.28;2.25;;;16.70;48.50;;;;;;5066994;28;20049;-48
2022/04/24 12:11:38;;;;;;;4.32;2.40;;;16.70;48.90;;;;;;5054640;28;20071;-47
2022/04/24 12:14:10;;;;;;;5.50;2.30;;;16.70;49.40;;;;;;5059804;28;20609;-49
2022/04/24 12:16:38;;;;;;;3.53;2.00;;;16.70;50.70;;;;;;5053859;28;20056;-48
2022/04/24 12:19:05;;;;;;;2.53;2.13;;;16.70;50.20;;;;;;5062520;28;20045;-48
2022/04/24 12:21:31;;;;;;;5.15;2.13;;;16.80;51.30;;;;;;5062381;28;20525;-48
2022/04/24 12:23:59;;;;;;;5.13;2.30;;;17.00;52.30;;;;;;5065083;28;20115;-50
2022/04/24 12:26:25;;;;;;;4.88;2.10;;;17.10;51.70;;;;;;5053564;28;20090;-47
2022/04/24 12:28:51;;;;;;;3.83;2.40;;;16.90;52.10;;;;;;5061410;28;20395;-47
2022/04/24 12:31:26;;;;;;;5.95;2.25;;;16.70;52.70;;;;;;5069624;28;20082;-48
2022/04/24 12:33:53;;;;;;;4.55;2.35;;;16.70;52.00;;;;;;5041276;28;20076;-51
2022/04/24 12:36:20;;;;;;;4.07;2.00;;;16.70;51.90;;;;;;5056795;28;20111;-48
2022/04/24 12:39:06;;;;;;;4.15;2.22;;;16.60;49.60;;;;;;5037107;28;20045;-51
2022/04/24 12:41:35;;;;;;;4.30;1.83;;;16.40;50.50;;;;;;5063530;28;20393;-50
2022/04/24 12:44:03;;;;;;;4.38;2.10;;;16.20;52.40;;;;;;5064763;28;20044;-47
2022/04/24 12:46:28;;;;;;;3.58;2.20;;;16.30;51.40;;;;;;5097315;22;20505;-47
2022/04/24 12:48:55;;;;;;;3.25;1.80;;;16.30;50.90;;;;;;5088171;28;20504;-48
2022/04/24 12:51:26;;;;;;;4.45;2.38;;;16.30;51.20;;;;;;5083198;28;20485;-47